createdAt,value
2018-06-01T00:01:30.775Z,80.90
2018-06-01T00:03:58.236Z,81.00
2018-06-01T00:06:25.714Z,81.50
2018-06-01T00:08:53.143Z,81.70
2018-06-01T00:11:20.598Z,81.90
2018-06-01T00:13:48.054Z,81.90
2018-06-01T00:16:15.506Z,81.80
2018-06-01T00:18:42.964Z,81.50
2018-06-01T00:21:10.402Z,81.70
2018-06-01T00:23:37.837Z,81.40
2018-06-01T00:26:06.053Z,80.90
2018-06-01T00:28:33.506Z,80.90
2018-06-01T00:31:00.959Z,80.80
2018-06-01T00:33:28.410Z,81.00
2018-06-01T00:35:55.908Z,79.90
2018-06-01T00:38:23.365Z,81.80
2018-06-01T00:40:50.823Z,80.30
2018-06-01T00:43:18.275Z,80.20
2018-06-01T00:45:45.733Z,79.70
2018-06-01T00:48:13.221Z,80.00
2018-06-01T00:50:41.447Z,80.20
2018-06-01T00:53:08.895Z,80.20
2018-06-01T00:55:36.342Z,80.20
2018-06-01T00:58:03.807Z,80.10
2018-06-01T01:00:31.246Z,79.70
2018-06-01T01:02:58.712Z,79.60
2018-06-01T01:05:26.161Z,79.50
2018-06-01T01:07:53.604Z,79.40
2018-06-01T01:10:21.057Z,79.40
2018-06-01T01:12:48.501Z,79.30
2018-06-01T01:15:16.713Z,79.60
2018-06-01T01:17:44.167Z,79.50
2018-06-01T01:20:11.626Z,76.60
2018-06-01T01:22:39.081Z,77.40
2018-06-01T01:25:06.535Z,77.60
2018-06-01T01:27:33.990Z,77.30
2018-06-01T01:30:01.423Z,77.20
2018-06-01T01:32:28.933Z,76.30
2018-06-01T01:34:56.443Z,76.90
2018-06-01T01:37:30.812Z,76.70
2018-06-01T01:39:59.169Z,76.90
2018-06-01T01:42:26.671Z,76.30
2018-06-01T01:44:54.963Z,77.20
2018-06-01T01:47:23.242Z,77.00
2018-06-01T01:49:53.548Z,77.00
2018-06-01T01:52:21.762Z,77.10
2018-06-01T01:54:49.207Z,76.90
2018-06-01T01:57:16.652Z,76.80
2018-06-01T01:59:44.876Z,76.90
2018-06-01T02:02:12.345Z,76.80
2018-06-01T02:04:39.790Z,76.40
2018-06-01T02:07:07.250Z,76.10
2018-06-01T02:09:34.692Z,75.80
2018-06-01T02:12:02.152Z,75.60
2018-06-01T02:14:29.586Z,75.90
2018-06-01T02:16:57.034Z,76.60
2018-06-01T02:19:24.500Z,76.90
2018-06-01T02:21:51.960Z,76.60
2018-06-01T02:24:19.415Z,75.90
2018-06-01T02:26:46.875Z,75.80
2018-06-01T02:29:14.335Z,75.20
2018-06-01T02:31:41.806Z,74.50
2018-06-01T02:34:09.253Z,74.10
2018-06-01T02:36:36.702Z,74.20
2018-06-01T02:39:04.160Z,74.20
2018-06-01T02:41:31.616Z,74.20
2018-06-01T02:43:59.059Z,73.50
2018-06-01T02:46:26.521Z,72.80
2018-06-01T02:48:53.959Z,73.40
2018-06-01T02:51:21.434Z,73.70
2018-06-01T02:53:48.879Z,73.90
2018-06-01T02:56:16.337Z,74.30
2018-06-01T02:58:43.778Z,74.90
2018-06-01T03:01:12.009Z,74.60
2018-06-01T03:03:39.465Z,74.50
2018-06-01T03:06:06.918Z,75.30
2018-06-01T03:08:34.376Z,75.70
2018-06-01T03:11:01.827Z,75.60
2018-06-01T03:13:29.301Z,76.00
2018-06-01T03:15:56.745Z,76.50
2018-06-01T03:18:24.196Z,76.70
2018-06-01T03:20:51.648Z,76.80
2018-06-01T03:23:19.131Z,76.50
2018-06-01T03:25:46.584Z,76.90
2018-06-01T03:28:14.049Z,77.50
2018-06-01T03:30:41.493Z,78.50
2018-06-01T03:33:08.922Z,77.80
2018-06-01T03:35:36.368Z,78.00
2018-06-01T03:38:04.579Z,77.40
2018-06-01T03:40:32.024Z,76.90
2018-06-01T03:42:59.477Z,77.40
2018-06-01T03:45:26.951Z,77.70
2018-06-01T03:47:54.410Z,77.60
2018-06-01T03:50:21.863Z,78.20
2018-06-01T03:52:49.323Z,77.80
2018-06-01T03:55:16.771Z,77.50
2018-06-01T03:57:44.237Z,77.00
2018-06-01T04:00:11.678Z,77.20
2018-06-01T04:02:39.143Z,77.30
2018-06-01T04:05:07.378Z,77.30
2018-06-01T04:07:34.830Z,76.90
2018-06-01T04:10:02.284Z,77.50
2018-06-01T04:12:31.318Z,77.60
2018-06-01T04:14:58.755Z,77.60
2018-06-01T04:17:26.217Z,78.00
2018-06-01T04:19:53.653Z,77.30
2018-06-01T04:22:21.100Z,77.10
2018-06-01T04:24:48.536Z,77.50
2018-06-01T04:27:16.759Z,77.80
2018-06-01T04:29:44.222Z,76.90
2018-06-01T04:32:11.682Z,75.60
2018-06-01T04:34:39.138Z,75.60
2018-06-01T04:37:06.603Z,75.60
2018-06-01T04:39:34.060Z,74.40
2018-06-01T04:42:01.513Z,85.70
2018-06-01T04:44:28.957Z,80.70
2018-06-01T04:46:56.408Z,75.60
2018-06-01T04:49:23.851Z,75.70
2018-06-01T04:51:51.295Z,75.90
2018-06-01T04:54:18.731Z,75.60
2018-06-01T04:56:46.960Z,75.00
2018-06-01T04:59:14.416Z,74.60
2018-06-01T05:01:41.855Z,74.90
2018-06-01T05:04:09.298Z,76.40
2018-06-01T05:06:36.759Z,76.60
2018-06-01T05:09:05.202Z,76.00
2018-06-01T05:11:32.638Z,75.50
2018-06-01T05:14:00.092Z,75.20
2018-06-01T05:16:27.556Z,75.10
2018-06-01T05:18:55.003Z,73.90
2018-06-01T05:21:22.467Z,74.50
2018-06-01T05:23:49.923Z,73.80
2018-06-01T05:26:17.381Z,74.10
2018-06-01T05:28:44.822Z,73.50
2018-06-01T05:31:12.268Z,73.50
2018-06-01T05:33:39.716Z,72.90
2018-06-01T05:36:07.941Z,73.40
2018-06-01T05:38:35.395Z,73.40
2018-06-01T05:41:02.846Z,72.30
2018-06-01T05:43:30.305Z,73.00
2018-06-01T05:45:57.736Z,78.00
2018-06-01T05:48:25.191Z,72.70
2018-06-01T05:50:52.638Z,72.00
2018-06-01T05:53:20.089Z,72.00
2018-06-01T05:55:47.540Z,71.70
2018-06-01T05:58:14.982Z,71.10
2018-06-01T06:00:42.431Z,70.30
2018-06-01T06:03:09.893Z,70.00
2018-06-01T06:05:37.347Z,70.10
2018-06-01T06:08:05.554Z,71.40
2018-06-01T06:10:33.012Z,71.40
2018-06-01T06:13:00.468Z,70.00
2018-06-01T06:15:27.920Z,70.00
2018-06-01T06:17:55.378Z,70.40
2018-06-01T06:20:22.826Z,68.30
2018-06-01T06:22:50.279Z,67.70
2018-06-01T06:25:17.727Z,66.70
2018-06-01T06:27:45.183Z,64.60
2018-06-01T06:30:12.627Z,65.80
2018-06-01T06:32:40.131Z,65.70
2018-06-01T06:35:07.587Z,65.00
2018-06-01T06:37:35.052Z,65.80
2018-06-01T06:40:02.493Z,66.10
2018-06-01T06:42:29.944Z,63.70
2018-06-01T06:44:57.380Z,61.20
2018-06-01T06:47:24.817Z,62.60
2018-06-01T06:49:53.030Z,62.70
2018-06-01T06:52:20.508Z,61.20
2018-06-01T06:54:47.959Z,61.80
2018-06-01T06:57:15.410Z,60.00
2018-06-01T06:59:42.881Z,58.50
2018-06-01T07:02:10.322Z,61.20
2018-06-01T07:04:37.766Z,58.30
2018-06-01T07:07:05.227Z,56.30
2018-06-01T07:09:32.670Z,57.50
2018-06-01T07:12:00.123Z,57.30
2018-06-01T07:14:27.562Z,56.50
2018-06-01T07:16:55.006Z,57.50
2018-06-01T07:19:23.240Z,55.30
2018-06-01T07:21:50.689Z,55.20
2018-06-01T07:24:18.126Z,57.00
2018-06-01T07:26:45.581Z,56.90
2018-06-01T07:29:13.022Z,56.00
2018-06-01T07:31:40.460Z,55.80
2018-06-01T07:34:08.670Z,55.30
2018-06-01T07:36:36.125Z,55.20
2018-06-01T07:39:03.578Z,56.40
2018-06-01T07:41:31.027Z,57.10
2018-06-01T07:43:58.467Z,56.00
2018-06-01T07:46:26.707Z,57.10
2018-06-01T07:48:54.166Z,56.60
2018-06-01T07:51:21.614Z,57.00
2018-06-01T07:53:49.891Z,57.30
2018-06-01T07:56:17.326Z,57.20
2018-06-01T07:58:44.797Z,55.80
2018-06-01T08:01:12.246Z,56.10
2018-06-01T08:03:39.762Z,56.40
2018-06-01T08:06:07.150Z,57.50
2018-06-01T08:08:34.599Z,56.90
2018-06-01T08:11:02.041Z,55.70
2018-06-01T08:13:29.507Z,53.20
2018-06-01T08:15:56.938Z,54.80
2018-06-01T08:18:25.158Z,51.60
2018-06-01T08:20:52.590Z,51.70
2018-06-01T08:23:20.042Z,52.50
2018-06-01T08:25:47.712Z,51.30
2018-06-01T08:28:15.164Z,51.20
2018-06-01T08:30:42.666Z,51.80
2018-06-01T08:33:10.068Z,51.90
2018-06-01T08:35:37.515Z,53.20
2018-06-01T08:38:05.733Z,49.40
2018-06-01T08:40:33.172Z,49.40
2018-06-01T08:43:00.605Z,47.10
2018-06-01T08:45:28.111Z,44.90
2018-06-01T08:47:55.547Z,44.80
2018-06-01T08:50:23.758Z,45.00
2018-06-01T08:52:51.212Z,45.00
2018-06-01T08:55:18.665Z,45.60
2018-06-01T08:57:46.109Z,45.90
2018-06-01T09:00:13.560Z,45.90
2018-06-01T09:02:41.017Z,44.60
2018-06-01T09:05:08.475Z,45.10
2018-06-01T09:07:35.933Z,42.80
2018-06-01T09:10:03.400Z,43.30
2018-06-01T09:12:30.833Z,42.70
2018-06-01T09:14:58.288Z,43.00
2018-06-01T09:17:25.744Z,43.50
2018-06-01T09:19:53.195Z,43.40
2018-06-01T09:22:20.647Z,42.80
2018-06-01T09:24:48.105Z,43.40
2018-06-01T09:27:15.539Z,42.20
2018-06-01T09:29:42.991Z,44.30
2018-06-01T09:32:11.203Z,44.70
2018-06-01T09:34:38.656Z,44.70
2018-06-01T09:37:06.110Z,45.40
2018-06-01T09:39:33.580Z,44.70
2018-06-01T09:42:01.033Z,45.80
2018-06-01T09:44:28.487Z,44.90
2018-06-01T09:46:55.947Z,45.50
2018-06-01T09:49:23.405Z,43.70
2018-06-01T09:51:50.866Z,43.70
2018-06-01T09:54:18.323Z,43.60
2018-06-01T09:56:45.774Z,45.70
2018-06-01T09:59:13.231Z,45.40
2018-06-01T10:01:40.701Z,44.60
2018-06-01T10:04:08.156Z,44.50
2018-06-01T10:06:35.615Z,45.60
2018-06-01T10:09:03.071Z,45.80
2018-06-01T10:11:30.779Z,45.10
2018-06-01T10:13:58.247Z,43.80
2018-06-01T10:16:25.701Z,45.10
2018-06-01T10:18:53.143Z,46.30
2018-06-01T10:21:21.362Z,44.60
2018-06-01T10:23:49.170Z,44.60
2018-06-01T10:26:16.614Z,44.90
2018-06-01T10:28:44.065Z,45.20
2018-06-01T10:31:11.507Z,44.60
2018-06-01T10:33:38.972Z,42.10
2018-06-01T10:36:06.417Z,44.70
2018-06-01T10:38:33.872Z,44.60
2018-06-01T10:41:01.315Z,46.40
2018-06-01T10:43:28.766Z,45.80
2018-06-01T10:45:56.215Z,45.70
2018-06-01T10:48:23.643Z,45.40
2018-06-01T10:50:51.876Z,43.70
2018-06-01T10:53:19.339Z,43.70
2018-06-01T10:55:46.796Z,44.10
2018-06-01T10:58:14.235Z,45.90
2018-06-01T11:00:41.696Z,45.20
2018-06-01T11:03:09.140Z,45.30
2018-06-01T11:05:36.607Z,46.00
2018-06-01T11:08:04.066Z,45.70
2018-06-01T11:10:31.539Z,45.70
2018-06-01T11:12:58.987Z,46.80
2018-06-01T11:15:26.458Z,46.80
2018-06-01T11:17:53.919Z,46.90
2018-06-01T11:20:21.381Z,44.70
2018-06-01T11:22:48.873Z,45.60
2018-06-01T11:25:16.333Z,46.20
2018-06-01T11:27:43.784Z,45.80
2018-06-01T11:30:11.253Z,46.30
2018-06-01T11:32:38.724Z,45.00
2018-06-01T11:35:06.190Z,45.30
2018-06-01T11:37:33.642Z,45.00
2018-06-01T11:40:01.100Z,44.10
2018-06-01T11:42:28.565Z,44.70
2018-06-01T11:44:56.015Z,43.10
2018-06-01T11:47:23.463Z,42.00
2018-06-01T11:49:50.934Z,43.00
2018-06-01T11:52:18.450Z,42.50
2018-06-01T11:54:45.917Z,41.80
2018-06-01T11:57:13.355Z,42.00
2018-06-01T11:59:40.808Z,42.20
2018-06-01T12:02:09.022Z,42.20
2018-06-01T12:04:36.473Z,42.20
2018-06-01T12:07:03.920Z,43.00
2018-06-01T12:09:31.364Z,44.10
2018-06-01T12:11:58.827Z,42.80
2018-06-01T12:14:26.292Z,43.70
2018-06-01T12:16:53.740Z,43.20
2018-06-01T12:19:21.195Z,42.40
2018-06-01T12:21:48.647Z,41.70
2018-06-01T12:24:16.132Z,43.70
2018-06-01T12:26:43.582Z,42.70
2018-06-01T12:29:11.036Z,42.20
2018-06-01T12:31:38.453Z,42.00
2018-06-01T12:34:06.677Z,44.10
2018-06-01T12:36:34.134Z,44.10
2018-06-01T12:39:01.592Z,43.30
2018-06-01T12:41:29.048Z,42.70
2018-06-01T12:43:56.514Z,40.90
2018-06-01T12:46:23.983Z,41.60
2018-06-01T12:48:51.427Z,42.00
2018-06-01T12:51:18.886Z,43.60
2018-06-01T12:53:46.339Z,43.50
2018-06-01T12:56:13.793Z,42.60
2018-06-01T12:58:41.248Z,42.80
2018-06-01T13:01:08.715Z,43.00
2018-06-01T13:03:36.169Z,43.50
2018-06-01T13:06:03.636Z,44.20
2018-06-01T13:08:31.094Z,43.20
2018-06-01T13:10:58.533Z,42.60
2018-06-01T13:13:25.984Z,42.80
2018-06-01T13:15:53.448Z,42.50
2018-06-01T13:18:20.955Z,44.20
2018-06-01T13:20:49.219Z,43.30
2018-06-01T13:23:16.618Z,43.30
2018-06-01T13:25:44.839Z,44.20
2018-06-01T13:28:12.293Z,44.10
2018-06-01T13:30:39.766Z,45.20
2018-06-01T13:33:08.000Z,45.00
2018-06-01T13:35:35.442Z,44.90
2018-06-01T13:38:02.888Z,43.70
2018-06-01T13:40:30.339Z,44.60
2018-06-01T13:42:57.794Z,44.20
2018-06-01T13:45:25.358Z,44.70
2018-06-01T13:47:52.819Z,44.30
2018-06-01T13:50:21.041Z,42.30
2018-06-01T13:52:48.521Z,42.80
2018-06-01T13:55:16.749Z,42.60
2018-06-01T13:57:44.206Z,42.60
2018-06-01T14:00:11.651Z,43.80
2018-06-01T14:02:39.097Z,44.70
2018-06-01T14:05:06.596Z,43.30
2018-06-01T14:07:34.052Z,44.00
2018-06-01T14:10:01.529Z,44.30
2018-06-01T14:12:29.749Z,44.80
2018-06-01T14:14:57.208Z,44.80
2018-06-01T14:17:24.680Z,44.60
2018-06-01T14:19:52.141Z,44.30
2018-06-01T14:22:20.355Z,43.60
2018-06-01T14:24:47.806Z,43.60
2018-06-01T14:27:16.037Z,43.80
2018-06-01T14:29:43.496Z,43.80
2018-06-01T14:32:10.952Z,44.30
2018-06-01T14:34:38.402Z,44.50
2018-06-01T14:37:05.850Z,45.00
2018-06-01T14:39:33.300Z,45.00
2018-06-01T14:42:00.731Z,44.00
2018-06-01T14:44:28.201Z,44.00
2018-06-01T14:46:55.667Z,44.20
2018-06-01T14:49:23.144Z,44.90
2018-06-01T14:51:50.606Z,44.70
2018-06-01T14:54:18.055Z,45.10
2018-06-01T14:56:45.519Z,44.80
2018-06-01T14:59:12.977Z,44.60
2018-06-01T15:01:41.210Z,45.40
2018-06-01T15:04:09.410Z,45.10
2018-06-01T15:06:36.858Z,45.20
2018-06-01T15:09:05.247Z,44.80
2018-06-01T15:11:32.693Z,45.30
2018-06-01T15:14:00.974Z,45.70
2018-06-01T15:16:28.350Z,45.70
2018-06-01T15:18:55.814Z,45.80
2018-06-01T15:21:23.256Z,45.50
2018-06-01T15:23:50.708Z,45.70
2018-06-01T15:26:18.177Z,45.80
2018-06-01T15:28:45.626Z,45.80
2018-06-01T15:31:13.074Z,45.60
2018-06-01T15:33:40.529Z,46.10
2018-06-01T15:36:07.989Z,45.30
2018-06-01T15:38:35.434Z,46.00
2018-06-01T15:41:03.011Z,46.00
2018-06-01T15:43:30.445Z,45.80
2018-06-01T15:45:57.930Z,46.00
2018-06-01T15:48:26.222Z,46.60
2018-06-01T15:50:53.646Z,46.50
2018-06-01T15:53:21.103Z,46.50
2018-06-01T15:55:48.566Z,46.40
2018-06-01T15:58:16.025Z,45.90
2018-06-01T16:00:43.491Z,46.10
2018-06-01T16:03:10.982Z,45.60
2018-06-01T16:05:39.191Z,46.10
2018-06-01T16:08:06.639Z,46.10
2018-06-01T16:10:34.086Z,46.50
2018-06-01T16:13:01.542Z,46.30
2018-06-01T16:15:28.995Z,45.30
2018-06-01T16:17:56.466Z,45.40
2018-06-01T16:20:23.966Z,45.90
2018-06-01T16:22:51.501Z,46.80
2018-06-01T16:25:19.037Z,46.60
2018-06-01T16:27:46.605Z,47.30
2018-06-01T16:30:14.111Z,47.60
2018-06-01T16:32:41.633Z,46.60
2018-06-01T16:35:09.178Z,46.40
2018-06-01T16:37:36.701Z,46.60
2018-06-01T16:40:04.254Z,47.50
2018-06-01T16:42:32.551Z,47.30
2018-06-01T16:45:00.077Z,47.20
2018-06-01T16:47:27.604Z,47.20
2018-06-01T16:49:55.102Z,47.20
2018-06-01T16:52:22.977Z,46.90
2018-06-01T16:54:51.183Z,47.10
2018-06-01T16:57:18.635Z,47.00
2018-06-01T16:59:46.071Z,47.50
2018-06-01T17:02:13.523Z,47.20
2018-06-01T17:04:40.988Z,47.30
2018-06-01T17:07:08.437Z,48.40
2018-06-01T17:09:36.639Z,49.10
2018-06-01T17:12:04.099Z,49.10
2018-06-01T17:14:31.553Z,50.00
2018-06-01T17:16:59.755Z,50.60
2018-06-01T17:19:27.200Z,50.60
2018-06-01T17:21:54.645Z,51.10
2018-06-01T17:24:22.116Z,51.30
2018-06-01T17:26:49.572Z,51.80
2018-06-01T17:29:17.027Z,51.90
2018-06-01T17:31:44.479Z,52.00
2018-06-01T17:34:11.917Z,52.40
2018-06-01T17:36:39.360Z,52.90
2018-06-01T17:39:06.824Z,52.70
2018-06-01T17:41:34.261Z,53.30
2018-06-01T17:44:01.703Z,53.50
2018-06-01T17:46:29.915Z,54.50
2018-06-01T17:48:57.369Z,53.50
2018-06-01T17:51:24.808Z,54.00
2018-06-01T17:53:52.275Z,54.30
2018-06-01T17:56:19.719Z,54.60
2018-06-01T17:58:47.942Z,54.90
2018-06-01T18:01:15.383Z,54.30
2018-06-01T18:03:42.826Z,54.80
2018-06-01T18:06:10.270Z,55.90
2018-06-01T18:08:37.719Z,55.50
2018-06-01T18:11:05.163Z,55.40
2018-06-01T18:13:33.377Z,55.80
2018-06-01T18:16:00.847Z,55.70
2018-06-01T18:18:28.295Z,55.60
2018-06-01T18:20:55.739Z,55.60
2018-06-01T18:23:23.214Z,55.80
2018-06-01T18:25:50.664Z,55.70
2018-06-01T18:28:18.114Z,55.90
2018-06-01T18:30:45.550Z,55.50
2018-06-01T18:33:13.010Z,55.70
2018-06-01T18:35:40.487Z,55.50
2018-06-01T18:38:07.932Z,55.70
2018-06-01T18:40:35.378Z,55.90
2018-06-01T18:43:02.835Z,56.60
2018-06-01T18:45:30.299Z,56.20
2018-06-01T18:47:57.740Z,56.40
2018-06-01T18:50:25.187Z,56.80
2018-06-01T18:52:53.404Z,56.50
2018-06-01T18:55:20.847Z,56.20
2018-06-01T18:57:48.314Z,57.70
2018-06-01T19:00:15.769Z,56.40
2018-06-01T19:02:43.225Z,57.00
2018-06-01T19:05:10.681Z,57.20
2018-06-01T19:07:38.114Z,57.50
2018-06-01T19:10:05.561Z,57.70
2018-06-01T19:12:33.761Z,57.90
2018-06-01T19:15:01.211Z,57.90
2018-06-01T19:17:28.705Z,57.70
2018-06-01T19:19:56.111Z,57.70
2018-06-01T19:22:23.546Z,57.70
2018-06-01T19:24:51.748Z,58.50
2018-06-01T19:27:19.200Z,58.50
2018-06-01T19:29:47.409Z,59.30
2018-06-01T19:32:14.900Z,59.30
2018-06-01T19:34:42.348Z,59.20
2018-06-01T19:37:09.796Z,59.50
2018-06-01T19:39:37.254Z,59.20
2018-06-01T19:42:04.712Z,59.30
2018-06-01T19:44:32.168Z,60.30
2018-06-01T19:46:59.607Z,61.00
2018-06-01T19:49:27.068Z,61.10
2018-06-01T19:51:54.520Z,61.90
2018-06-01T19:54:21.964Z,62.20
2018-06-01T19:56:49.403Z,62.20
2018-06-01T19:59:16.856Z,62.90
2018-06-01T20:01:44.309Z,63.00
2018-06-01T20:04:11.763Z,63.10
2018-06-01T20:06:39.208Z,63.50
2018-06-01T20:09:07.419Z,64.10
2018-06-01T20:11:34.867Z,63.90
2018-06-01T20:14:02.335Z,63.80
2018-06-01T20:16:29.783Z,63.80
2018-06-01T20:18:57.243Z,64.20
2018-06-01T20:21:24.684Z,64.60
2018-06-01T20:23:52.135Z,65.10
2018-06-01T20:26:19.587Z,65.80
2018-06-01T20:28:47.034Z,66.50
2018-06-01T20:31:15.252Z,67.00
2018-06-01T20:33:42.704Z,67.00
2018-06-01T20:36:10.165Z,66.80
2018-06-01T20:38:37.633Z,67.10
2018-06-01T20:41:05.088Z,66.80
2018-06-01T20:43:32.548Z,66.70
2018-06-01T20:45:59.999Z,66.90
2018-06-01T20:48:27.466Z,66.70
2018-06-01T20:50:54.923Z,66.70
2018-06-01T20:53:23.153Z,66.30
2018-06-01T20:55:50.603Z,65.20
2018-06-01T20:58:18.066Z,65.90
2018-06-01T21:00:45.528Z,65.00
2018-06-01T21:03:12.999Z,65.00
2018-06-01T21:05:40.468Z,65.70
2018-06-01T21:08:07.919Z,66.10
2018-06-01T21:10:35.381Z,66.90
2018-06-01T21:13:02.830Z,67.10
2018-06-01T21:15:30.273Z,67.40
2018-06-01T21:17:58.493Z,67.60
2018-06-01T21:20:25.945Z,67.60
2018-06-01T21:22:53.400Z,67.50
2018-06-01T21:25:20.845Z,67.00
2018-06-01T21:27:48.293Z,66.60
2018-06-01T21:30:15.729Z,67.70
2018-06-01T21:38:09.762Z,67.70
2018-06-01T21:43:53.948Z,67.60
2018-06-01T21:46:21.386Z,67.70
2018-06-01T21:48:59.315Z,66.70
2018-06-01T21:51:46.136Z,67.00
2018-06-01T21:54:22.734Z,67.60
2018-06-01T21:56:50.176Z,68.00
2018-06-01T21:59:18.391Z,68.80
2018-06-01T22:01:45.839Z,68.70
2018-06-01T22:04:13.291Z,68.90
2018-06-01T22:06:40.746Z,69.00
2018-06-01T22:09:08.190Z,68.80
2018-06-01T22:11:35.627Z,68.80
2018-06-01T22:14:03.838Z,68.70
2018-06-01T22:16:31.297Z,68.50
2018-06-01T22:18:58.753Z,68.30
2018-06-01T22:21:26.190Z,68.00
2018-06-01T22:23:53.657Z,68.20
2018-06-01T22:26:21.108Z,68.30
2018-06-01T22:28:48.556Z,68.00
2018-06-01T22:31:16.009Z,67.90
2018-06-01T22:33:44.239Z,68.10
2018-06-01T22:36:11.683Z,67.90
2018-06-01T22:38:39.126Z,67.60
2018-06-01T22:41:06.580Z,67.90
2018-06-01T22:43:34.809Z,67.30
2018-06-01T22:46:03.026Z,68.20
2018-06-01T22:48:30.465Z,68.10
2018-06-01T22:50:57.929Z,67.90
2018-06-01T22:53:25.372Z,68.20
2018-06-01T22:55:53.666Z,68.30
2018-06-01T22:58:21.105Z,68.60
2018-06-01T23:00:48.567Z,68.90
2018-06-01T23:03:16.439Z,68.80
2018-06-01T23:05:43.890Z,68.20
2018-06-01T23:08:11.353Z,68.20
2018-06-01T23:10:38.800Z,68.10
2018-06-01T23:13:06.247Z,68.60
2018-06-01T23:15:34.452Z,69.20
2018-06-01T23:18:01.901Z,69.20
2018-06-01T23:20:29.355Z,69.40
2018-06-01T23:22:56.809Z,69.50
2018-06-01T23:25:24.239Z,70.30
2018-06-01T23:27:52.451Z,70.00
2018-06-01T23:30:19.905Z,70.00
2018-06-01T23:32:47.359Z,70.10
2018-06-01T23:35:14.807Z,70.00
2018-06-01T23:37:42.258Z,70.00
2018-06-01T23:40:09.735Z,69.80
2018-06-01T23:42:37.186Z,68.70
2018-06-01T23:45:04.649Z,68.70
2018-06-01T23:47:32.114Z,68.90
2018-06-01T23:49:59.562Z,68.90
2018-06-01T23:52:27.007Z,69.10
2018-06-01T23:54:54.466Z,69.50
2018-06-01T23:57:21.907Z,69.90
2018-06-01T23:59:49.358Z,70.30
